Time;durP1;ratioP1;P1;durP2;ratioP2;P2;SDS_P1;SDS_P2;PMS_P1;PMS_P2;Temp;Humidity;BMP_temperature;BMP_pressure;BME280_temperature;BME280_humidity;BME280_pressure;Samples;Min_cycle;Max_cycle;Signal;HPM_P1;HPM_P2
2021/05/11 00:02:08;;;;;;;11.80;6.32;;;14.20;99.90;;;;;;5094349;28;20491;-63
2021/05/11 00:04:33;;;;;;;9.02;6.53;;;14.20;99.90;;;;;;5094268;28;20513;-66
2021/05/11 00:06:59;;;;;;;11.57;6.60;;;14.20;99.90;;;;;;5095816;28;20024;-64
2021/05/11 00:09:24;;;;;;;10.45;7.13;;;14.20;99.90;;;;;;5077428;28;20020;-63
2021/05/11 00:11:50;;;;;;;12.93;6.75;;;14.20;99.90;;;;;;5077389;28;20465;-63
2021/05/11 00:14:16;;;;;;;7.18;6.47;;;14.20;99.90;;;;;;5095000;28;20031;-65
2021/05/11 00:16:41;;;;;;;9.95;6.90;;;14.20;99.90;;;;;;5095613;28;20461;-64
2021/05/11 00:19:07;;;;;;;8.02;6.68;;;14.20;99.90;;;;;;5095631;28;20027;-63
2021/05/11 00:21:33;;;;;;;11.15;6.43;;;14.20;99.90;;;;;;5077851;28;20021;-63
2021/05/11 00:23:59;;;;;;;9.10;6.55;;;14.10;99.90;;;;;;5095724;28;20032;-63
2021/05/11 00:26:24;;;;;;;11.80;6.30;;;14.10;99.90;;;;;;5078018;28;20045;-63
2021/05/11 00:28:50;;;;;;;9.10;6.85;;;14.10;99.90;;;;;;5094243;28;20415;-62
2021/05/11 00:31:15;;;;;;;8.95;6.18;;;14.10;99.90;;;;;;5094119;28;20439;-63
2021/05/11 00:33:41;;;;;;;9.43;6.60;;;14.00;99.90;;;;;;5077706;28;20381;-63
2021/05/11 00:36:07;;;;;;;11.40;6.53;;;14.10;99.90;;;;;;5093848;28;20078;-62
2021/05/11 00:38:32;;;;;;;7.75;5.72;;;14.10;99.90;;;;;;5093819;28;20489;-62
2021/05/11 00:40:58;;;;;;;9.63;6.35;;;14.00;99.90;;;;;;5093702;28;20024;-63
2021/05/11 00:43:23;;;;;;;7.50;5.90;;;14.00;99.90;;;;;;5094750;28;20078;-63
2021/05/11 00:45:49;;;;;;;8.65;6.32;;;14.00;99.90;;;;;;5093884;28;20026;-62
2021/05/11 00:48:15;;;;;;;9.45;5.47;;;14.00;99.90;;;;;;5094767;28;20020;-62
2021/05/11 00:50:40;;;;;;;8.98;5.53;;;14.00;99.90;;;;;;5076571;28;20024;-62
2021/05/11 00:53:06;;;;;;;8.18;5.55;;;14.00;99.90;;;;;;5093588;28;20032;-62
2021/05/11 00:55:32;;;;;;;6.30;4.70;;;14.00;99.90;;;;;;5093464;28;20481;-62
2021/05/11 00:57:58;;;;;;;6.80;5.57;;;14.00;99.90;;;;;;5093690;28;20465;-62
2021/05/11 01:00:24;;;;;;;10.50;5.60;;;14.00;99.90;;;;;;5093692;28;20028;-63
2021/05/11 01:02:50;;;;;;;12.45;6.25;;;14.00;99.90;;;;;;5093099;28;20460;-63
2021/05/11 01:05:16;;;;;;;7.97;7.00;;;14.00;99.90;;;;;;5094685;28;20012;-62
2021/05/11 01:07:45;;;;;;;7.57;5.00;;;14.00;99.90;;;;;;5076341;28;20031;-63
2021/05/11 01:10:10;;;;;;;8.02;5.70;;;14.00;99.90;;;;;;5094656;28;20023;-63
2021/05/11 01:12:36;;;;;;;8.57;5.57;;;13.90;99.90;;;;;;5094400;28;20032;-63
2021/05/11 01:15:01;;;;;;;8.10;5.47;;;13.90;99.90;;;;;;5093100;28;20115;-63
2021/05/11 01:17:30;;;;;;;6.95;5.68;;;13.90;99.90;;;;;;5093836;28;20032;-63
2021/05/11 01:19:59;;;;;;;7.95;5.10;;;13.90;99.90;;;;;;5093106;28;20020;-63
2021/05/11 01:22:35;;;;;;;6.95;5.93;;;13.90;99.90;;;;;;5094405;28;20047;-63
2021/05/11 01:25:06;;;;;;;6.00;5.30;;;13.90;99.90;;;;;;5077364;28;20024;-63
2021/05/11 01:30:48;;;;;;;6.90;4.88;;;13.80;99.90;;;;;;5092877;28;20485;-63
2021/05/11 01:44:45;;;;;;;8.57;5.10;;;13.90;99.90;;;;;;5093640;28;20024;-63
2021/05/11 01:52:20;;;;;;;8.75;5.28;;;13.90;99.90;;;;;;5097402;28;20488;-62
2021/05/11 01:54:56;;;;;;;;;;;13.90;99.90;;;;;;5116630;28;20533;-65
2021/05/11 02:17:58;;;;;;;7.63;4.57;;;13.90;99.90;;;;;;5131412;28;20072;-63
2021/05/11 02:24:58;;;;;;;6.53;4.25;;;13.70;99.90;;;;;;5130149;28;20016;-63
2021/05/11 02:27:23;;;;;;;7.60;4.30;;;13.70;99.90;;;;;;5131420;27;20353;-63
2021/05/11 02:29:49;;;;;;;3.60;3.30;;;13.70;99.90;;;;;;5130053;28;20019;-63
2021/05/11 02:32:16;;;;;;;5.10;3.83;;;13.70;99.90;;;;;;5112825;28;20023;-63
2021/05/11 02:34:43;;;;;;;6.13;3.72;;;13.70;99.90;;;;;;5130560;28;20016;-63
2021/05/11 02:37:08;;;;;;;5.68;3.38;;;13.70;99.90;;;;;;5131622;27;20520;-64
2021/05/11 02:39:34;;;;;;;6.55;4.20;;;13.70;99.90;;;;;;5096264;28;20054;-63
2021/05/11 02:42:00;;;;;;;6.45;3.78;;;13.70;99.90;;;;;;5131525;28;20372;-64
2021/05/11 02:44:25;;;;;;;4.85;3.92;;;13.70;99.90;;;;;;5112592;28;20031;-63
2021/05/11 02:46:51;;;;;;;5.05;4.03;;;13.60;99.90;;;;;;5112987;28;20469;-64
2021/05/11 02:49:18;;;;;;;6.85;3.97;;;13.60;99.90;;;;;;5129260;28;20043;-63
2021/05/11 02:51:44;;;;;;;5.45;4.45;;;13.60;99.90;;;;;;5112755;28;20118;-63
2021/05/11 02:54:11;;;;;;;6.63;4.13;;;13.60;99.90;;;;;;5112674;28;20055;-64
2021/05/11 02:56:36;;;;;;;4.60;4.20;;;13.50;99.90;;;;;;5130033;28;20460;-64
2021/05/11 02:59:02;;;;;;;4.35;3.80;;;13.50;99.90;;;;;;5127830;28;20031;-64
2021/05/11 03:01:28;;;;;;;8.07;4.85;;;13.50;99.90;;;;;;5117446;28;20016;-63
2021/05/11 03:03:53;;;;;;;5.57;4.97;;;13.50;99.90;;;;;;5098651;28;20028;-64
2021/05/11 03:06:19;;;;;;;8.52;5.03;;;13.60;99.90;;;;;;5115544;28;20406;-64
2021/05/11 03:08:44;;;;;;;8.55;5.68;;;13.60;99.90;;;;;;5082127;28;20038;-63
2021/05/11 03:11:10;;;;;;;7.40;6.03;;;13.50;99.90;;;;;;5116294;28;20024;-63
2021/05/11 03:13:36;;;;;;;10.95;5.45;;;13.50;99.90;;;;;;5115560;28;20086;-64
2021/05/11 03:16:02;;;;;;;11.75;6.20;;;13.50;99.90;;;;;;5115821;28;20426;-63
2021/05/11 03:18:28;;;;;;;7.72;5.50;;;13.50;99.90;;;;;;5115612;28;20058;-63
2021/05/11 03:20:53;;;;;;;9.25;7.03;;;13.40;99.90;;;;;;5116827;28;20156;-64
2021/05/11 03:23:20;;;;;;;9.80;7.07;;;13.40;99.90;;;;;;5116666;28;20374;-64
2021/05/11 03:25:45;;;;;;;8.73;7.15;;;13.40;99.90;;;;;;5116748;28;20073;-64
2021/05/11 03:28:11;;;;;;;8.60;7.00;;;13.40;99.90;;;;;;5098776;28;20031;-63
2021/05/11 03:30:40;;;;;;;7.93;6.78;;;13.40;99.90;;;;;;5098557;28;20092;-64
2021/05/11 03:33:05;;;;;;;9.30;6.93;;;13.40;99.90;;;;;;5098622;28;20500;-64
2021/05/11 03:35:31;;;;;;;7.63;6.22;;;13.30;99.90;;;;;;5117024;28;20016;-64
2021/05/11 03:37:56;;;;;;;9.57;7.07;;;13.30;99.90;;;;;;5116999;28;20032;-64
2021/05/11 03:40:22;;;;;;;10.18;7.05;;;13.30;99.90;;;;;;5114902;28;20024;-64
2021/05/11 03:42:53;;;;;;;8.23;6.90;;;13.30;99.90;;;;;;5116550;28;20028;-64
2021/05/11 03:45:20;;;;;;;9.20;6.93;;;13.30;99.90;;;;;;5116478;28;20042;-63
2021/05/11 03:47:48;;;;;;;8.30;6.82;;;13.30;99.90;;;;;;5081226;28;20043;-64
2021/05/11 03:50:15;;;;;;;9.35;6.40;;;13.30;99.90;;;;;;5115215;28;20112;-63
2021/05/11 03:52:43;;;;;;;8.95;7.15;;;13.30;99.90;;;;;;5114953;28;20047;-63
2021/05/11 03:55:09;;;;;;;10.38;6.68;;;13.30;99.90;;;;;;5114806;28;20031;-63
2021/05/11 03:57:37;;;;;;;12.27;6.50;;;13.30;99.90;;;;;;5115042;28;20028;-64
2021/05/11 04:00:05;;;;;;;8.20;6.22;;;13.30;99.90;;;;;;5115008;28;20024;-63
2021/05/11 04:02:31;;;;;;;9.82;6.95;;;13.20;99.90;;;;;;5097561;28;20062;-63
2021/05/11 04:04:56;;;;;;;9.95;7.10;;;13.20;99.90;;;;;;5115069;28;20035;-63
2021/05/11 04:07:22;;;;;;;12.73;6.95;;;13.20;99.90;;;;;;5097914;28;20038;-63
2021/05/11 04:09:52;;;;;;;13.15;6.90;;;13.20;99.90;;;;;;5115784;28;20016;-64
2021/05/11 04:17:50;;;;;;;10.15;7.75;;;13.10;99.90;;;;;;5114239;28;20068;-64
2021/05/11 04:20:16;;;;;;;14.50;7.80;;;13.10;99.90;;;;;;5097537;28;20406;-63
2021/05/11 04:22:41;;;;;;;14.73;8.85;;;13.10;99.90;;;;;;5115550;28;20027;-63
2021/05/11 04:25:07;;;;;;;13.32;8.88;;;13.00;99.90;;;;;;5114802;28;20027;-64
2021/05/11 04:27:33;;;;;;;12.68;8.90;;;13.10;99.90;;;;;;5080096;28;20156;-64
2021/05/11 04:30:01;;;;;;;13.85;9.23;;;13.20;99.90;;;;;;5114729;28;20361;-63
2021/05/11 04:32:30;;;;;;;12.15;9.27;;;13.20;99.90;;;;;;5113987;28;20047;-63
2021/05/11 04:34:56;;;;;;;15.13;10.20;;;13.20;99.90;;;;;;5097456;28;20024;-63
2021/05/11 04:37:24;;;;;;;15.70;10.00;;;13.20;99.90;;;;;;5115616;28;20042;-64
2021/05/11 04:39:51;;;;;;;12.95;9.50;;;13.30;99.90;;;;;;5115497;28;20030;-64
2021/05/11 04:42:20;;;;;;;13.18;8.60;;;13.30;99.90;;;;;;5113674;28;20020;-64
2021/05/11 04:44:45;;;;;;;10.23;8.90;;;13.30;99.90;;;;;;5113558;28;20019;-64
2021/05/11 04:47:15;;;;;;;15.95;9.70;;;13.40;99.90;;;;;;5113911;28;20038;-63
2021/05/11 04:49:41;;;;;;;12.63;9.95;;;13.50;99.90;;;;;;5113233;28;20096;-64
2021/05/11 04:52:07;;;;;;;13.88;10.60;;;13.50;99.90;;;;;;5113840;28;20039;-64
2021/05/11 04:54:32;;;;;;;12.25;10.43;;;13.50;99.90;;;;;;5114713;28;20020;-64
2021/05/11 04:56:58;;;;;;;11.70;10.35;;;13.50;99.90;;;;;;5115201;28;20023;-64
2021/05/11 04:59:24;;;;;;;12.10;10.10;;;13.50;99.90;;;;;;5113745;28;20030;-64
2021/05/11 05:01:52;;;;;;;14.35;11.45;;;13.50;99.90;;;;;;5113745;28;20147;-64
2021/05/11 05:04:18;;;;;;;16.35;10.27;;;13.50;99.90;;;;;;5113366;28;20020;-64
2021/05/11 05:06:43;;;;;;;13.95;10.82;;;13.60;99.90;;;;;;5096882;28;20046;-64
2021/05/11 05:09:09;;;;;;;10.98;9.80;;;13.70;99.90;;;;;;5096650;28;20081;-64
2021/05/11 05:11:39;;;;;;;14.25;10.23;;;13.70;99.90;;;;;;5114904;28;20380;-64
2021/05/11 05:14:06;;;;;;;14.25;10.38;;;13.80;99.90;;;;;;5113033;28;20024;-64
2021/05/11 05:16:32;;;;;;;13.25;9.98;;;13.90;99.90;;;;;;5113725;28;20055;-64
2021/05/11 05:18:58;;;;;;;13.77;9.90;;;13.90;99.90;;;;;;5114566;28;20084;-64
2021/05/11 05:21:24;;;;;;;13.77;9.80;;;14.00;99.90;;;;;;5113143;28;20036;-64
2021/05/11 05:23:59;;;;;;;10.30;9.07;;;14.10;99.90;;;;;;5095805;28;20114;-64
2021/05/11 05:26:27;;;;;;;10.95;8.98;;;14.10;99.90;;;;;;5114744;28;20077;-64
2021/05/11 05:28:53;;;;;;;12.77;9.38;;;14.20;99.90;;;;;;5114670;28;20031;-64
2021/05/11 05:31:18;;;;;;;9.23;8.32;;;14.30;99.90;;;;;;5114339;28;20020;-64
2021/05/11 05:33:44;;;;;;;10.23;8.30;;;14.20;99.90;;;;;;5113233;28;20028;-64
2021/05/11 05:36:09;;;;;;;9.55;7.65;;;14.20;99.90;;;;;;5095912;28;20529;-64
2021/05/11 05:38:39;;;;;;;9.00;7.70;;;14.20;99.90;;;;;;5114549;28;20400;-64
2021/05/11 05:41:08;;;;;;;11.15;8.50;;;14.20;99.90;;;;;;5113176;28;20031;-65
2021/05/11 05:43:34;;;;;;;11.23;8.63;;;14.20;99.90;;;;;;5114297;28;20023;-64
2021/05/11 05:46:00;;;;;;;10.10;8.90;;;14.30;99.90;;;;;;5095656;28;20370;-64
2021/05/11 05:48:26;;;;;;;9.45;8.45;;;14.40;99.90;;;;;;5113819;28;20044;-64
2021/05/11 05:50:55;;;;;;;11.57;8.27;;;14.40;99.90;;;;;;5114346;28;20088;-64
2021/05/11 05:53:24;;;;;;;11.80;8.65;;;14.50;99.90;;;;;;5114259;28;20103;-64
2021/05/11 05:55:50;;;;;;;9.88;8.43;;;14.40;99.90;;;;;;5114364;28;20023;-64
2021/05/11 05:58:16;;;;;;;10.02;8.45;;;14.30;99.90;;;;;;5113151;28;20418;-63
2021/05/11 06:00:42;;;;;;;10.65;8.88;;;14.30;99.90;;;;;;5114325;28;20046;-63
2021/05/11 06:03:18;;;;;;;12.23;9.00;;;14.20;99.90;;;;;;5114345;28;20024;-64
2021/05/11 06:05:44;;;;;;;10.05;7.88;;;14.30;99.90;;;;;;5097109;28;20123;-64
2021/05/11 06:08:10;;;;;;;10.65;9.02;;;14.30;99.90;;;;;;5112774;28;20051;-64
2021/05/11 06:10:36;;;;;;;9.57;8.65;;;14.50;99.90;;;;;;5095746;28;20035;-64
2021/05/11 06:13:09;;;;;;;13.75;8.45;;;14.70;99.90;;;;;;5077907;28;20023;-64
2021/05/11 06:18:24;;;;;;;9.70;7.00;;;15.10;99.90;;;;;;5109876;28;19912;-65
2021/05/11 06:20:50;;;;;;;8.50;7.00;;;15.10;99.90;;;;;;5104444;28;20461;-65
2021/05/11 06:23:18;;;;;;;9.85;7.78;;;15.00;99.90;;;;;;5105187;28;20070;-64
2021/05/11 06:25:44;;;;;;;9.00;7.45;;;15.00;99.90;;;;;;5113797;28;20048;-64
2021/05/11 06:28:12;;;;;;;8.70;7.80;;;14.90;99.90;;;;;;5113437;28;20059;-64
2021/05/11 06:30:38;;;;;;;10.88;7.55;;;15.00;99.90;;;;;;5113590;28;20024;-64
2021/05/11 06:33:06;;;;;;;8.55;6.90;;;15.10;99.90;;;;;;5114088;28;20047;-64
2021/05/11 06:35:33;;;;;;;10.23;8.02;;;15.10;99.90;;;;;;5115081;28;20187;-64
2021/05/11 06:38:00;;;;;;;9.02;7.32;;;15.10;99.90;;;;;;5098651;28;20032;-65
2021/05/11 06:40:27;;;;;;;9.48;8.02;;;15.10;99.90;;;;;;5116430;28;20015;-64
2021/05/11 06:42:53;;;;;;;9.30;7.35;;;15.20;99.90;;;;;;5114350;28;20023;-64
2021/05/11 06:48:16;;;;;;;15.15;8.00;;;15.40;99.90;;;;;;5105446;28;20046;-68
2021/05/11 06:53:56;;;;;;;11.60;7.22;;;15.30;99.90;;;;;;5089691;28;20372;-67
2021/05/11 06:56:22;;;;;;;10.07;7.97;;;15.40;99.90;;;;;;5075251;28;20086;-67
2021/05/11 06:58:49;;;;;;;8.15;7.22;;;15.50;99.90;;;;;;5058741;28;20030;-68
2021/05/11 07:01:18;;;;;;;9.48;7.35;;;15.50;99.90;;;;;;5082173;28;20485;-66
2021/05/11 07:03:44;;;;;;;8.82;7.93;;;15.40;99.90;;;;;;5069709;28;20070;-66
2021/05/11 07:06:12;;;;;;;9.00;8.10;;;15.40;99.90;;;;;;5085463;28;20028;-67
2021/05/11 07:08:42;;;;;;;9.88;7.32;;;15.50;99.90;;;;;;5069054;28;20021;-67
2021/05/11 07:11:23;;;;;;;8.90;6.35;;;15.50;99.90;;;;;;5085609;28;20448;-67
2021/05/11 07:13:49;;;;;;;9.07;6.60;;;15.40;99.90;;;;;;5070867;28;20028;-67
2021/05/11 07:16:15;;;;;;;6.82;5.95;;;15.40;99.90;;;;;;5062172;28;20029;-67
2021/05/11 07:18:41;;;;;;;6.95;5.03;;;15.30;99.90;;;;;;5078759;28;20362;-70
2021/05/11 07:21:06;;;;;;;8.07;5.78;;;15.30;99.90;;;;;;5069974;28;20035;-67
2021/05/11 07:23:32;;;;;;;7.38;5.63;;;15.30;99.90;;;;;;5076195;28;20031;-67
2021/05/11 07:26:12;;;;;;;5.32;4.80;;;15.40;99.90;;;;;;5089358;28;20039;-67
2021/05/11 07:31:26;;;;;;;5.95;4.80;;;15.40;99.90;;;;;;5088324;28;20032;-67
2021/05/11 07:33:53;;;;;;;5.47;4.93;;;15.40;99.90;;;;;;5085064;28;20028;-67
2021/05/11 07:36:19;;;;;;;5.32;4.45;;;15.40;99.90;;;;;;5085239;28;20025;-67
2021/05/11 07:38:46;;;;;;;5.50;4.50;;;15.30;99.90;;;;;;5058035;28;20439;-67
2021/05/11 07:41:14;;;;;;;7.05;4.20;;;15.40;99.90;;;;;;5079182;28;20025;-67
2021/05/11 07:43:41;;;;;;;6.53;4.78;;;15.20;99.90;;;;;;5070092;28;20497;-67
2021/05/11 07:46:23;;;;;;;5.28;4.75;;;15.20;99.90;;;;;;5084630;28;20078;-68
2021/05/11 08:05:25;;;;;;;8.57;5.80;;;16.30;99.90;;;;;;5072039;28;20034;-68
2021/05/11 08:15:53;;;;;;;8.82;7.82;;;16.90;99.90;;;;;;5089374;28;20047;-68
2021/05/11 08:18:28;;;;;;;12.35;9.73;;;17.00;99.90;;;;;;5089881;28;20017;-67
2021/05/11 08:29:11;;;;;;;15.32;13.77;;;16.80;99.90;;;;;;5089789;28;20116;-68
2021/05/11 08:31:36;;;;;;;21.42;15.10;;;16.30;99.90;;;;;;5089226;28;20477;-67
2021/05/11 08:34:02;;;;;;;24.17;16.50;;;16.00;99.90;;;;;;5071831;28;20024;-67
2021/05/11 08:36:28;;;;;;;28.63;18.30;;;15.50;99.90;;;;;;5087294;28;20354;-67
2021/05/11 08:38:57;;;;;;;34.05;20.58;;;15.20;99.90;;;;;;5071499;28;20024;-67
2021/05/11 08:41:23;;;;;;;35.17;19.92;;;15.00;99.90;;;;;;5070855;28;20393;-68
2021/05/11 08:43:48;;;;;;;27.70;16.85;;;15.00;99.90;;;;;;5055123;28;20027;-69
2021/05/11 08:46:14;;;;;;;31.17;17.08;;;14.90;99.90;;;;;;5071313;28;20028;-69
2021/05/11 08:48:40;;;;;;;26.48;15.38;;;14.90;99.90;;;;;;5071701;28;20063;-69
2021/05/11 08:51:09;;;;;;;15.00;9.32;;;15.00;99.90;;;;;;5071327;28;20056;-69
2021/05/11 09:04:59;;;;;;;8.50;6.60;;;15.00;99.90;;;;;;5080686;28;20025;-69
2021/05/11 09:08:17;;;;;;;8.88;6.95;;;15.10;99.90;;;;;;5074020;28;20028;-69
2021/05/11 09:25:00;;;;;;;4.88;4.00;;;15.40;99.90;;;;;;5068993;28;20021;-68
2021/05/11 09:30:17;;;;;;;6.03;3.92;;;15.50;99.90;;;;;;5070411;28;20020;-70
2021/05/11 09:33:20;;;;;;;5.10;3.70;;;15.70;99.90;;;;;;5070126;28;20031;-69
2021/05/11 09:51:13;;;;;;;3.90;3.20;;;15.40;99.90;;;;;;5069871;28;20075;-70
2021/05/11 09:54:23;;;;;;;4.22;2.85;;;15.50;99.90;;;;;;5069479;28;20064;-69
2021/05/11 10:10:28;;;;;;;5.05;2.60;;;15.50;99.90;;;;;;5068308;28;20051;-69
2021/05/11 10:14:36;;;;;;;4.88;3.00;;;15.90;99.90;;;;;;5089922;28;20134;-68
2021/05/11 10:37:07;;;;;;;7.15;2.97;;;15.40;99.90;;;;;;5111334;27;20397;-68
2021/05/11 10:39:14;;;;;;;7.35;3.28;;;15.40;99.90;;;;;;5089124;28;20029;-70
2021/05/11 10:44:31;;;;;;;4.05;3.33;;;15.50;99.90;;;;;;5098290;27;663949;-69
2021/05/11 10:46:57;;;;;;;3.65;3.35;;;15.60;99.90;;;;;;5127238;28;20071;-69
2021/05/11 10:49:34;;;;;;;3.28;2.97;;;15.70;99.90;;;;;;5131820;27;20051;-69
2021/05/11 10:52:19;;;;;;;6.68;3.88;;;15.70;99.90;;;;;;5131318;27;20039;-69
2021/05/11 10:54:56;;;;;;;7.93;3.38;;;15.70;99.90;;;;;;5116406;28;20019;-69
2021/05/11 10:57:47;;;;;;;5.30;3.17;;;15.70;99.90;;;;;;5117158;27;20024;-69
2021/05/11 11:03:17;;;;;;;4.30;3.22;;;15.60;99.90;;;;;;5110523;27;20863;-69
2021/05/11 11:05:46;;;;;;;5.75;3.78;;;15.50;99.90;;;;;;5098920;28;20112;-69
2021/05/11 11:08:34;;;;;;;6.25;3.55;;;15.30;99.90;;;;;;5096360;28;20080;-68
2021/05/11 11:11:19;;;;;;;3.92;3.30;;;15.20;99.90;;;;;;5104060;28;20025;-68
2021/05/11 11:13:47;;;;;;;4.82;3.17;;;15.20;99.90;;;;;;5098637;28;20397;-68
2021/05/11 11:16:13;;;;;;;3.95;3.53;;;15.20;99.90;;;;;;5103833;28;20075;-69
2021/05/11 11:18:39;;;;;;;5.50;3.42;;;15.20;99.90;;;;;;5091001;28;20485;-68
2021/05/11 11:23:53;;;;;;;5.50;3.47;;;15.10;99.90;;;;;;5120936;27;657348;-68
2021/05/11 11:26:42;;;;;;;5.10;3.47;;;15.20;99.90;;;;;;5129667;28;20049;-69
2021/05/11 11:29:09;;;;;;;3.85;3.28;;;15.20;99.90;;;;;;5122352;28;20020;-68
2021/05/11 11:31:40;;;;;;;5.13;3.30;;;15.20;99.90;;;;;;5131719;27;20019;-68
2021/05/11 11:37:16;;;;;;;5.07;3.30;;;15.10;99.90;;;;;;5111314;27;20400;-67
2021/05/11 11:39:46;;;;;;;5.30;3.78;;;15.20;99.90;;;;;;5098725;28;20078;-68
2021/05/11 11:42:29;;;;;;;5.57;3.22;;;15.20;99.90;;;;;;5094014;28;20103;-69
2021/05/11 11:44:59;;;;;;;5.47;3.47;;;15.00;99.90;;;;;;5096692;28;20028;-69
2021/05/11 11:47:25;;;;;;;3.97;3.38;;;14.80;99.90;;;;;;5105998;28;20064;-69
2021/05/11 11:49:55;;;;;;;4.07;3.58;;;14.70;99.90;;;;;;5106841;28;20515;-69
2021/05/11 11:52:33;;;;;;;6.97;3.80;;;14.60;99.90;;;;;;5110719;28;20541;-70
2021/05/11 11:57:54;;;;;;;7.65;5.95;;;14.40;99.90;;;;;;5106323;28;20030;-69
2021/05/11 12:00:25;;;;;;;10.57;6.70;;;14.50;99.90;;;;;;5109973;28;20354;-69
2021/05/11 12:02:53;;;;;;;12.52;6.57;;;14.60;99.90;;;;;;5109969;28;20020;-69
2021/05/11 12:05:21;;;;;;;14.00;6.65;;;14.60;99.90;;;;;;5099697;28;20027;-69
2021/05/11 12:10:36;;;;;;;10.10;7.40;;;14.50;99.90;;;;;;5105728;28;20067;-69
2021/05/11 12:13:05;;;;;;;11.50;7.28;;;14.50;99.90;;;;;;5109803;28;20454;-71
2021/05/11 12:15:31;;;;;;;13.45;7.07;;;14.60;99.90;;;;;;5106018;28;20081;-69
2021/05/11 12:18:05;;;;;;;10.50;7.20;;;14.80;99.90;;;;;;5110025;28;20022;-69
2021/05/11 12:20:31;;;;;;;13.10;7.65;;;14.80;99.90;;;;;;5106892;28;20453;-68
2021/05/11 12:23:18;;;;;;;10.82;7.82;;;14.80;99.90;;;;;;5109051;28;20035;-69
2021/05/11 12:26:01;;;;;;;9.55;7.32;;;14.80;99.90;;;;;;5109732;28;20035;-69
2021/05/11 12:28:36;;;;;;;10.25;7.10;;;14.80;99.90;;;;;;5106842;28;20016;-69
2021/05/11 12:31:04;;;;;;;11.65;7.13;;;14.80;99.90;;;;;;5110158;28;20427;-70
2021/05/11 12:33:32;;;;;;;9.02;6.90;;;14.80;99.90;;;;;;5108277;28;20039;-70
2021/05/11 12:36:02;;;;;;;10.35;7.25;;;14.80;99.90;;;;;;5108381;28;20040;-69
2021/05/11 12:38:30;;;;;;;10.05;7.10;;;14.80;99.90;;;;;;5087313;28;20080;-70
2021/05/11 12:43:43;;;;;;;11.40;6.93;;;14.80;99.90;;;;;;5106930;28;20030;-68
2021/05/11 12:46:31;;;;;;;11.85;7.80;;;14.80;99.90;;;;;;5104279;28;20023;-69
2021/05/11 12:48:59;;;;;;;9.60;7.55;;;15.00;99.90;;;;;;5076306;28;20052;-69
2021/05/11 12:51:42;;;;;;;10.07;7.97;;;15.20;99.90;;;;;;5083220;28;20372;-69
2021/05/11 12:57:26;;;;;;;11.10;7.68;;;15.30;99.90;;;;;;5109488;27;20134;-68
2021/05/11 13:00:32;;;;;;;8.07;7.10;;;15.30;99.90;;;;;;5111240;28;20457;-68
2021/05/11 13:02:50;;;;;;;12.23;7.85;;;15.20;99.90;;;;;;5108075;28;20476;-68
2021/05/11 13:16:34;;;;;;;10.23;9.02;;;15.30;99.90;;;;;;5096751;28;20019;-63
2021/05/11 13:27:19;;;;;;;14.68;11.15;;;15.10;99.90;;;;;;5109626;28;20085;-64
2021/05/11 13:30:27;;;;;;;13.15;11.10;;;15.20;99.90;;;;;;5110626;28;20017;-63
2021/05/11 13:35:11;;;;;;;11.65;10.45;;;15.40;99.90;;;;;;5090095;28;20407;-63
2021/05/11 13:37:37;;;;;;;12.20;10.88;;;15.40;99.90;;;;;;5090154;28;20036;-63
2021/05/11 13:40:05;;;;;;;13.60;11.73;;;15.50;99.90;;;;;;5090351;28;20028;-63
2021/05/11 13:42:31;;;;;;;12.75;11.45;;;15.60;99.90;;;;;;5088505;28;20043;-63
2021/05/11 13:44:56;;;;;;;13.23;10.85;;;15.60;99.90;;;;;;5089892;28;20458;-63
2021/05/11 13:47:23;;;;;;;13.13;11.73;;;15.60;99.90;;;;;;5089190;28;20090;-64
2021/05/11 13:49:52;;;;;;;12.80;11.30;;;15.60;99.90;;;;;;5090158;28;20016;-63
2021/05/11 13:52:17;;;;;;;13.30;10.77;;;15.70;99.90;;;;;;5084384;28;20107;-64
2021/05/11 13:54:45;;;;;;;14.02;12.18;;;15.60;99.90;;;;;;5085346;28;20107;-63
2021/05/11 13:57:20;;;;;;;13.35;11.95;;;15.60;99.90;;;;;;5089534;28;20028;-63
2021/05/11 14:02:39;;;;;;;13.70;12.30;;;15.70;99.90;;;;;;5077666;28;20025;-64
2021/05/11 14:05:06;;;;;;;14.65;13.15;;;15.60;99.90;;;;;;5069905;28;20044;-63
2021/05/11 14:07:31;;;;;;;16.52;13.55;;;15.50;99.90;;;;;;5087975;28;20036;-64
2021/05/11 14:09:58;;;;;;;15.00;12.77;;;15.50;99.90;;;;;;5090366;28;20031;-64
2021/05/11 14:12:23;;;;;;;14.77;12.30;;;15.60;99.90;;;;;;5088381;28;20165;-64
2021/05/11 14:14:49;;;;;;;15.75;13.20;;;15.60;99.90;;;;;;5089972;28;20113;-63
2021/05/11 14:17:15;;;;;;;14.18;12.68;;;15.60;99.90;;;;;;5072827;28;20029;-64
2021/05/11 14:19:40;;;;;;;15.80;13.02;;;15.50;99.90;;;;;;5069328;28;20024;-64
2021/05/11 14:22:06;;;;;;;11.68;10.57;;;15.50;99.90;;;;;;5070715;28;20032;-64
2021/05/11 14:24:32;;;;;;;13.73;11.27;;;15.60;99.90;;;;;;5072913;28;20021;-64
2021/05/11 14:26:57;;;;;;;13.50;12.10;;;15.70;99.90;;;;;;5069300;28;20029;-64
2021/05/11 14:29:23;;;;;;;13.00;11.70;;;15.90;99.90;;;;;;5070291;28;20477;-65
2021/05/11 14:31:50;;;;;;;13.77;11.30;;;16.00;99.90;;;;;;5069630;28;20032;-65
2021/05/11 14:34:16;;;;;;;12.80;10.68;;;15.90;99.90;;;;;;5075707;28;20042;-64
2021/05/11 14:36:41;;;;;;;13.10;11.73;;;15.90;99.90;;;;;;5082868;28;20024;-65
2021/05/11 14:39:08;;;;;;;11.98;10.63;;;15.90;99.90;;;;;;5088110;28;20036;-64
2021/05/11 14:41:34;;;;;;;12.63;11.13;;;15.90;99.90;;;;;;5087875;28;20025;-65
2021/05/11 14:44:01;;;;;;;12.68;10.95;;;16.00;99.90;;;;;;5087796;28;20088;-64
2021/05/11 14:46:26;;;;;;;12.73;10.80;;;16.00;99.90;;;;;;5058540;28;20031;-65
2021/05/11 14:48:52;;;;;;;11.77;10.57;;;16.00;99.90;;;;;;5064248;28;20021;-65
2021/05/11 14:51:18;;;;;;;12.35;11.07;;;16.00;99.90;;;;;;5054639;28;20036;-65
2021/05/11 14:53:43;;;;;;;12.30;10.85;;;16.00;99.90;;;;;;5056653;28;20029;-65
2021/05/11 14:56:11;;;;;;;13.55;11.82;;;16.00;99.90;;;;;;5055768;28;20025;-65
2021/05/11 14:58:37;;;;;;;14.35;12.60;;;16.00;99.90;;;;;;5061616;28;20048;-65
2021/05/11 15:01:03;;;;;;;13.40;11.98;;;15.90;99.90;;;;;;5059923;28;20436;-65
2021/05/11 15:03:29;;;;;;;16.88;12.70;;;15.80;99.90;;;;;;5075757;28;20036;-65
2021/05/11 15:05:54;;;;;;;13.18;11.82;;;15.90;99.90;;;;;;5073153;28;20021;-65
2021/05/11 15:08:20;;;;;;;12.93;11.63;;;15.90;99.90;;;;;;5073999;28;20067;-64
2021/05/11 15:10:46;;;;;;;13.48;12.07;;;16.00;99.90;;;;;;5074641;28;20033;-64
2021/05/11 15:13:12;;;;;;;12.82;11.57;;;16.00;99.90;;;;;;5055258;28;20086;-64
2021/05/11 15:15:39;;;;;;;12.75;11.48;;;16.00;99.90;;;;;;5055431;28;20029;-64
2021/05/11 15:18:06;;;;;;;14.02;12.57;;;16.10;99.90;;;;;;5073810;28;20024;-65
2021/05/11 15:20:34;;;;;;;13.43;11.95;;;16.20;99.90;;;;;;5075106;28;20024;-65
2021/05/11 15:23:00;;;;;;;15.32;12.20;;;16.10;99.90;;;;;;5055440;28;20056;-65
2021/05/11 15:25:27;;;;;;;14.00;12.15;;;16.30;99.90;;;;;;5055688;28;20021;-63
2021/05/11 15:27:54;;;;;;;12.15;10.93;;;16.30;99.90;;;;;;5056349;28;20087;-64
2021/05/11 15:30:21;;;;;;;12.98;11.55;;;16.30;99.90;;;;;;5071783;28;20028;-64
2021/05/11 15:32:53;;;;;;;14.07;12.05;;;16.30;99.90;;;;;;5071573;28;20048;-65
2021/05/11 15:35:21;;;;;;;14.15;11.20;;;16.10;99.90;;;;;;5073879;28;20024;-64
2021/05/11 15:37:52;;;;;;;12.30;10.63;;;16.00;99.90;;;;;;5059442;28;20021;-64
2021/05/11 15:40:19;;;;;;;12.77;11.45;;;15.90;99.90;;;;;;5055114;28;20352;-63
2021/05/11 15:42:45;;;;;;;15.90;12.68;;;15.80;99.90;;;;;;5072762;28;20020;-63
2021/05/11 15:45:11;;;;;;;17.33;13.75;;;15.70;99.90;;;;;;5074178;28;20035;-63
2021/05/11 15:47:38;;;;;;;15.75;13.38;;;15.60;99.90;;;;;;5059067;28;20406;-64
2021/05/11 15:50:06;;;;;;;18.83;13.43;;;15.60;99.90;;;;;;5067075;28;20036;-64
2021/05/11 15:52:31;;;;;;;15.35;13.43;;;15.60;99.90;;;;;;5073257;28;20462;-63
2021/05/11 15:54:57;;;;;;;16.58;13.82;;;15.50;99.90;;;;;;5074172;28;20032;-64
2021/05/11 15:57:23;;;;;;;16.88;14.23;;;15.40;99.90;;;;;;5053896;28;20021;-64
2021/05/11 15:59:48;;;;;;;16.75;14.27;;;15.40;99.90;;;;;;5083968;28;20029;-63
2021/05/11 16:02:14;;;;;;;21.63;14.38;;;15.40;99.90;;;;;;5074521;28;20020;-64
2021/05/11 16:04:39;;;;;;;17.02;14.05;;;15.40;99.90;;;;;;5062266;28;20021;-64
2021/05/11 16:07:05;;;;;;;18.95;15.40;;;15.40;99.90;;;;;;5073369;28;20123;-64
2021/05/11 16:09:31;;;;;;;22.52;16.10;;;15.30;99.90;;;;;;5072472;28;20064;-64
2021/05/11 16:11:57;;;;;;;23.38;15.77;;;15.30;99.90;;;;;;5074953;28;20052;-64
2021/05/11 16:14:23;;;;;;;21.33;14.85;;;15.30;99.90;;;;;;5060894;28;20032;-62
2021/05/11 16:16:48;;;;;;;17.95;14.45;;;15.40;99.90;;;;;;5054063;28;20493;-64
2021/05/11 16:19:14;;;;;;;17.73;13.95;;;15.40;99.90;;;;;;5054510;28;20474;-63
2021/05/11 16:21:39;;;;;;;19.50;15.38;;;15.50;99.90;;;;;;5054446;28;20025;-64
2021/05/11 16:24:05;;;;;;;20.02;14.75;;;15.60;99.90;;;;;;5055469;28;20099;-64
2021/05/11 16:26:31;;;;;;;20.55;15.32;;;15.60;99.90;;;;;;5053380;28;20055;-63